Time;durP1;ratioP1;P1;durP2;ratioP2;P2;SDS_P1;SDS_P2;PMS_P1;PMS_P2;Temp;Humidity;BMP_temperature;BMP_pressure;BME280_temperature;BME280_humidity;BME280_pressure;Samples;Min_cycle;Max_cycle;Signal;HPM_P1;HPM_P2
2022/06/09 00:00:24;;;;;;;44.53;14.52;;;15.30;99.90;;;;;;4972989;28;20311;-58
2022/06/09 00:02:54;;;;;;;39.90;14.20;;;15.30;99.90;;;;;;4975227;28;20054;-60
2022/06/09 00:05:22;;;;;;;39.58;16.08;;;15.30;99.90;;;;;;4973033;28;20038;-61
2022/06/09 00:07:50;;;;;;;45.97;16.15;;;15.30;99.90;;;;;;4973480;28;20393;-59
2022/06/09 00:10:22;;;;;;;44.42;16.08;;;15.30;99.90;;;;;;4972781;28;20050;-58
2022/06/09 00:12:47;;;;;;;36.33;15.40;;;15.20;99.90;;;;;;4968446;28;20508;-59
2022/06/09 00:15:14;;;;;;;41.25;17.70;;;15.20;99.90;;;;;;4967414;28;20140;-60
2022/06/09 00:17:41;;;;;;;34.08;14.82;;;15.20;99.90;;;;;;4967945;28;20049;-58
2022/06/09 00:20:08;;;;;;;39.22;17.20;;;15.20;99.90;;;;;;4977059;28;20216;-60
2022/06/09 00:22:34;;;;;;;41.05;15.00;;;15.20;99.90;;;;;;4974355;28;20051;-61
2022/06/09 00:25:00;;;;;;;42.42;17.65;;;15.10;99.90;;;;;;4979058;28;21136;-61
2022/06/09 00:27:26;;;;;;;44.60;18.10;;;15.10;99.90;;;;;;4976347;28;20050;-59
2022/06/09 00:29:52;;;;;;;48.88;18.30;;;15.00;99.90;;;;;;4977069;28;20038;-61
2022/06/09 00:32:18;;;;;;;51.08;18.95;;;15.00;99.90;;;;;;4972892;28;20159;-61
2022/06/09 00:34:43;;;;;;;36.15;16.25;;;14.90;99.90;;;;;;4976524;28;20051;-59
2022/06/09 00:37:10;;;;;;;40.03;15.98;;;14.90;99.90;;;;;;4980114;28;20148;-59
2022/06/09 00:39:36;;;;;;;36.75;16.23;;;14.90;99.90;;;;;;4959611;28;20039;-61
2022/06/09 00:42:02;;;;;;;46.38;17.15;;;14.80;99.90;;;;;;4977216;28;20050;-59
2022/06/09 00:44:29;;;;;;;38.35;19.17;;;14.80;99.90;;;;;;4976329;28;20184;-61
2022/06/09 00:47:02;;;;;;;40.88;17.95;;;14.80;99.90;;;;;;4975665;28;20054;-62
2022/06/09 00:49:37;;;;;;;43.53;19.13;;;14.80;99.90;;;;;;4974936;28;20390;-61
2022/06/09 00:52:06;;;;;;;38.47;18.38;;;14.80;99.90;;;;;;4970288;28;20547;-61
2022/06/09 00:54:49;;;;;;;45.00;19.15;;;14.70;99.90;;;;;;4977000;28;20049;-60
2022/06/09 00:57:21;;;;;;;45.80;19.52;;;14.70;99.90;;;;;;4948245;28;20382;-58
2022/06/09 00:59:54;;;;;;;33.20;17.58;;;14.70;99.90;;;;;;4949499;28;20046;-60
2022/06/09 01:02:21;;;;;;;41.25;20.52;;;14.70;99.90;;;;;;4948265;28;20046;-60
2022/06/09 01:04:51;;;;;;;42.05;18.60;;;14.70;99.90;;;;;;4951102;28;20098;-61
2022/06/09 01:07:33;;;;;;;44.50;20.92;;;14.70;99.90;;;;;;4949304;28;20077;-62
2022/06/09 01:09:58;;;;;;;38.47;19.27;;;14.70;99.90;;;;;;4959254;28;20045;-61
2022/06/09 01:12:33;;;;;;;36.38;18.35;;;14.70;99.90;;;;;;4927882;28;20077;-60
2022/06/09 01:15:09;;;;;;;44.05;21.17;;;14.70;99.90;;;;;;4945676;28;20039;-61
2022/06/09 01:17:58;;;;;;;46.97;21.38;;;14.70;99.90;;;;;;4946113;28;20120;-60
2022/06/09 01:20:39;;;;;;;38.40;20.17;;;14.70;99.90;;;;;;4955421;28;20042;-60
2022/06/09 01:23:23;;;;;;;49.60;23.25;;;14.70;99.90;;;;;;4957105;28;20412;-59
2022/06/09 01:26:01;;;;;;;40.05;20.05;;;14.70;99.90;;;;;;4995422;28;20050;-61
2022/06/09 01:28:51;;;;;;;48.55;21.60;;;14.70;99.90;;;;;;4979014;28;20077;-60
2022/06/09 01:31:39;;;;;;;41.75;19.00;;;14.60;99.90;;;;;;4980521;28;20424;-60
2022/06/09 01:34:14;;;;;;;33.65;15.30;;;14.60;99.90;;;;;;4960370;28;20049;-61
2022/06/09 01:36:58;;;;;;;42.08;17.70;;;14.50;99.90;;;;;;4963072;28;20043;-59
2022/06/09 01:39:41;;;;;;;47.58;18.30;;;14.50;99.90;;;;;;4959159;28;20252;-59
2022/06/09 01:42:27;;;;;;;52.13;20.98;;;14.50;99.90;;;;;;4970014;28;20264;-58
2022/06/09 01:44:59;;;;;;;48.78;19.05;;;14.40;99.90;;;;;;4948492;28;20117;-60
2022/06/09 01:47:37;;;;;;;37.53;16.20;;;14.40;99.90;;;;;;4954133;28;20409;-58
2022/06/09 01:50:07;;;;;;;40.97;17.48;;;14.40;99.90;;;;;;4959183;28;20066;-60
2022/06/09 01:52:34;;;;;;;40.70;18.60;;;14.30;99.90;;;;;;4956400;28;20058;-57
2022/06/09 01:55:03;;;;;;;34.70;16.20;;;14.30;99.90;;;;;;4933910;28;20050;-60
2022/06/09 01:57:34;;;;;;;33.72;16.73;;;14.30;99.90;;;;;;4957914;28;21433;-58
2022/06/09 02:00:07;;;;;;;36.50;15.82;;;14.30;99.90;;;;;;4959358;28;20063;-59
2022/06/09 02:02:37;;;;;;;43.38;19.10;;;14.30;99.90;;;;;;4956264;28;20081;-60
2022/06/09 02:05:18;;;;;;;35.00;15.30;;;14.20;99.90;;;;;;4953407;28;20085;-59
2022/06/09 02:07:55;;;;;;;38.83;17.75;;;14.30;99.90;;;;;;4958418;28;20532;-60
2022/06/09 02:10:37;;;;;;;43.75;18.85;;;14.30;99.90;;;;;;4954865;28;20043;-61
2022/06/09 02:13:11;;;;;;;30.83;14.40;;;14.30;99.90;;;;;;4950528;28;20043;-60
2022/06/09 02:15:43;;;;;;;36.88;17.70;;;14.30;99.90;;;;;;4961071;28;20254;-60
2022/06/09 02:18:16;;;;;;;34.78;18.10;;;14.30;99.90;;;;;;4958609;28;20042;-58
2022/06/09 02:20:48;;;;;;;30.40;16.43;;;14.30;99.90;;;;;;4954772;28;20181;-60
2022/06/09 02:23:14;;;;;;;29.08;17.30;;;14.20;99.90;;;;;;4954879;28;20042;-58
2022/06/09 02:25:40;;;;;;;33.60;16.13;;;14.20;99.90;;;;;;4954391;28;20034;-60
2022/06/09 02:28:07;;;;;;;36.63;17.25;;;14.20;99.90;;;;;;4948690;28;20138;-61
2022/06/09 02:30:34;;;;;;;35.72;16.33;;;14.20;99.90;;;;;;4956347;28;20504;-60
2022/06/09 02:33:00;;;;;;;33.00;16.45;;;14.20;99.90;;;;;;4956536;28;20035;-59
2022/06/09 02:35:26;;;;;;;34.63;15.85;;;14.20;99.90;;;;;;4939600;28;20043;-61
2022/06/09 02:37:51;;;;;;;34.65;18.20;;;14.20;99.90;;;;;;4948481;28;20057;-60
2022/06/09 02:40:17;;;;;;;27.80;15.45;;;14.20;99.90;;;;;;4945629;28;20046;-60
2022/06/09 02:42:43;;;;;;;35.85;16.52;;;14.20;99.90;;;;;;4944260;28;21674;-57
2022/06/09 02:45:09;;;;;;;28.80;16.05;;;14.20;99.90;;;;;;4945824;28;20038;-59
2022/06/09 02:47:35;;;;;;;33.22;16.58;;;14.20;99.90;;;;;;4945856;28;20050;-59
2022/06/09 02:50:02;;;;;;;28.17;15.73;;;14.20;99.90;;;;;;4940850;28;20778;-61
2022/06/09 02:52:28;;;;;;;27.08;16.02;;;14.20;99.90;;;;;;4951679;28;20049;-59
2022/06/09 02:54:54;;;;;;;25.30;15.13;;;14.20;99.90;;;;;;4955483;28;20497;-59
2022/06/09 02:57:23;;;;;;;22.77;12.70;;;14.10;99.90;;;;;;4944391;28;20046;-59
2022/06/09 02:59:51;;;;;;;25.08;15.32;;;14.10;99.90;;;;;;4948265;28;20042;-61
2022/06/09 03:02:17;;;;;;;21.75;13.30;;;14.10;99.90;;;;;;4953064;28;20171;-61
2022/06/09 03:04:43;;;;;;;31.55;15.75;;;14.10;99.90;;;;;;4964061;28;20066;-60
2022/06/09 03:07:08;;;;;;;26.60;14.50;;;14.10;99.90;;;;;;4963111;28;20206;-60
2022/06/09 03:09:34;;;;;;;26.45;14.90;;;14.10;99.90;;;;;;4971407;28;20046;-61
2022/06/09 03:12:00;;;;;;;27.10;13.38;;;14.10;99.90;;;;;;4975036;28;20260;-60
2022/06/09 03:14:25;;;;;;;32.75;16.63;;;14.10;99.90;;;;;;4955977;28;20049;-62
2022/06/09 03:16:51;;;;;;;23.23;12.57;;;14.20;99.90;;;;;;4950194;28;20042;-59
2022/06/09 03:19:18;;;;;;;28.45;16.70;;;14.10;99.90;;;;;;4932602;28;20291;-60
2022/06/09 03:21:43;;;;;;;26.50;16.15;;;14.20;99.90;;;;;;4948406;28;20038;-61
2022/06/09 03:24:09;;;;;;;24.88;14.45;;;14.20;99.90;;;;;;4953819;28;20061;-59
2022/06/09 03:26:36;;;;;;;28.63;16.13;;;14.20;99.90;;;;;;4955967;28;20054;-58
2022/06/09 03:29:01;;;;;;;25.45;17.10;;;14.20;99.90;;;;;;4960839;28;20048;-61
2022/06/09 03:31:27;;;;;;;26.40;17.35;;;14.20;99.90;;;;;;4950893;28;20049;-61
2022/06/09 03:33:53;;;;;;;25.00;15.45;;;14.20;99.90;;;;;;4959557;28;20073;-61
2022/06/09 03:36:19;;;;;;;27.42;16.65;;;14.20;99.90;;;;;;4940896;28;20191;-60
2022/06/09 03:38:44;;;;;;;23.10;17.55;;;14.20;99.90;;;;;;4959570;28;20038;-59
2022/06/09 03:41:10;;;;;;;24.60;16.83;;;14.20;99.90;;;;;;4953180;28;20229;-59
2022/06/09 03:43:36;;;;;;;24.33;18.05;;;14.20;99.90;;;;;;4969550;28;20061;-60
2022/06/09 03:46:02;;;;;;;26.35;19.52;;;14.20;99.90;;;;;;4953645;28;20129;-61
2022/06/09 03:48:28;;;;;;;28.67;20.65;;;14.20;99.90;;;;;;4950231;28;20047;-59
2022/06/09 03:50:54;;;;;;;22.38;17.42;;;14.20;99.90;;;;;;4954127;28;20046;-61
2022/06/09 03:53:20;;;;;;;24.77;17.55;;;14.20;99.90;;;;;;4957190;28;20038;-60
2022/06/09 03:55:46;;;;;;;20.38;16.05;;;14.30;99.90;;;;;;4966167;28;20047;-62
2022/06/09 03:58:12;;;;;;;23.90;19.08;;;14.20;99.90;;;;;;4962115;28;20790;-60
2022/06/09 04:00:38;;;;;;;27.15;20.73;;;14.30;99.90;;;;;;4986911;28;20061;-61
2022/06/09 04:03:04;;;;;;;28.80;22.55;;;14.30;99.90;;;;;;4952484;28;20038;-61
2022/06/09 04:05:31;;;;;;;32.53;23.38;;;14.20;99.90;;;;;;4970158;28;20041;-61
2022/06/09 04:07:59;;;;;;;30.95;24.77;;;14.20;99.90;;;;;;4972899;28;20050;-62
2022/06/09 04:10:28;;;;;;;31.98;23.02;;;14.20;99.90;;;;;;4974054;28;20045;-61
2022/06/09 04:12:54;;;;;;;38.58;25.63;;;14.20;99.90;;;;;;4961307;28;20129;-62
2022/06/09 04:15:21;;;;;;;29.08;23.25;;;14.20;99.90;;;;;;4953221;28;20165;-62
2022/06/09 04:17:47;;;;;;;37.78;24.55;;;14.10;99.90;;;;;;4956706;28;20042;-61
2022/06/09 04:20:15;;;;;;;29.35;23.35;;;14.10;99.90;;;;;;4961857;28;20250;-61
2022/06/09 04:22:40;;;;;;;34.20;24.60;;;14.10;99.90;;;;;;4962883;28;20394;-61
2022/06/09 04:25:06;;;;;;;36.53;25.40;;;14.10;99.90;;;;;;4932655;28;20053;-61
2022/06/09 04:27:32;;;;;;;32.33;23.75;;;14.10;99.90;;;;;;4929719;28;20464;-62
2022/06/09 04:29:58;;;;;;;34.45;26.15;;;14.10;99.90;;;;;;4950366;28;20038;-60
2022/06/09 04:32:24;;;;;;;41.05;30.35;;;14.10;99.90;;;;;;4946925;28;20133;-62
2022/06/09 04:34:50;;;;;;;36.42;25.90;;;14.10;99.90;;;;;;4946831;28;20125;-63
2022/06/09 04:37:16;;;;;;;43.13;31.27;;;14.10;99.90;;;;;;4947685;28;20050;-59
2022/06/09 04:39:41;;;;;;;47.42;33.35;;;14.10;99.90;;;;;;4950845;28;20045;-62
2022/06/09 04:42:08;;;;;;;44.28;32.38;;;14.20;99.90;;;;;;4932770;28;20042;-62
2022/06/09 04:44:34;;;;;;;40.15;30.45;;;14.20;99.90;;;;;;4945616;28;20046;-63
2022/06/09 04:47:00;;;;;;;42.60;32.58;;;14.20;99.90;;;;;;4958295;28;20406;-61
2022/06/09 04:49:25;;;;;;;34.72;28.50;;;14.20;99.90;;;;;;4946651;28;20081;-62
2022/06/09 04:51:51;;;;;;;38.08;29.48;;;14.20;99.90;;;;;;4967010;23;21122;-62
2022/06/09 04:54:17;;;;;;;32.42;26.48;;;14.20;99.90;;;;;;4947495;28;20051;-62
2022/06/09 04:56:43;;;;;;;30.70;25.98;;;14.20;99.90;;;;;;4952420;28;20066;-62
2022/06/09 04:59:08;;;;;;;29.83;26.08;;;14.20;99.90;;;;;;4961419;28;20053;-62
2022/06/09 05:01:34;;;;;;;31.73;26.52;;;14.20;99.90;;;;;;4955995;28;20445;-62
2022/06/09 05:04:01;;;;;;;34.97;27.70;;;14.20;99.90;;;;;;4954586;28;20043;-62
2022/06/09 05:06:28;;;;;;;39.45;30.02;;;14.20;99.90;;;;;;4944962;28;20042;-62
2022/06/09 05:08:56;;;;;;;34.55;28.02;;;14.20;99.90;;;;;;4928503;28;20042;-62
2022/06/09 05:11:23;;;;;;;33.83;27.15;;;14.30;99.90;;;;;;4945497;28;21304;-62
2022/06/09 05:13:49;;;;;;;34.58;28.48;;;14.30;99.90;;;;;;4958405;28;20108;-62
2022/06/09 05:16:16;;;;;;;34.42;27.45;;;14.30;99.90;;;;;;4963076;28;20046;-62
2022/06/09 05:18:42;;;;;;;31.92;26.55;;;14.30;99.90;;;;;;4965584;28;20428;-62
2022/06/09 05:21:09;;;;;;;29.52;24.52;;;14.40;99.90;;;;;;4967833;28;20035;-63
2022/06/09 05:23:36;;;;;;;32.65;27.83;;;14.40;99.90;;;;;;4952354;28;20046;-63
2022/06/09 05:26:03;;;;;;;32.05;25.23;;;14.40;99.90;;;;;;4952653;28;20457;-62
2022/06/09 05:28:30;;;;;;;34.45;27.83;;;14.40;99.90;;;;;;4963904;28;20169;-63
2022/06/09 05:30:56;;;;;;;31.55;24.85;;;14.40;99.90;;;;;;4954242;28;20042;-62
2022/06/09 05:33:23;;;;;;;30.13;24.63;;;14.40;99.90;;;;;;4952745;28;20511;-63
2022/06/09 05:35:49;;;;;;;27.73;23.27;;;14.40;99.90;;;;;;4968110;28;20046;-63
2022/06/09 05:46:49;;;;;;;31.08;23.85;;;14.50;99.90;;;;;;4938427;28;20313;-63
2022/06/09 05:49:16;;;;;;;26.30;21.55;;;14.50;99.90;;;;;;4959628;28;20382;-63
2022/06/09 05:51:42;;;;;;;26.55;21.35;;;14.50;99.90;;;;;;4951413;28;20496;-62
2022/06/09 05:54:09;;;;;;;25.25;20.40;;;14.60;99.90;;;;;;4960412;28;20042;-62
2022/06/09 05:56:35;;;;;;;31.10;22.38;;;14.60;99.90;;;;;;4953312;28;23702;-63
2022/06/09 05:59:00;;;;;;;28.00;21.67;;;14.70;99.90;;;;;;4964209;28;20046;-62
2022/06/09 06:01:27;;;;;;;23.23;20.40;;;14.80;99.90;;;;;;4964578;28;22281;-63
2022/06/09 06:03:53;;;;;;;23.42;18.90;;;14.80;99.90;;;;;;4987836;28;20106;-63
2022/06/09 06:06:33;;;;;;;22.30;16.98;;;14.80;99.90;;;;;;4928149;28;20052;-63
2022/06/09 06:09:05;;;;;;;19.15;15.30;;;14.80;99.90;;;;;;4943813;28;20103;-62
2022/06/09 06:11:31;;;;;;;18.38;14.52;;;14.90;99.90;;;;;;4944116;28;20055;-62
2022/06/09 06:13:56;;;;;;;17.58;15.68;;;14.80;99.90;;;;;;4927999;28;20054;-62
2022/06/09 06:16:23;;;;;;;16.92;14.30;;;14.90;99.90;;;;;;4944512;28;20043;-62
2022/06/09 06:18:49;;;;;;;17.08;14.07;;;15.00;99.90;;;;;;4944407;28;20050;-63
2022/06/09 06:21:16;;;;;;;22.23;17.40;;;15.20;99.90;;;;;;4950213;28;20046;-62
2022/06/09 06:23:42;;;;;;;17.85;15.98;;;15.20;99.90;;;;;;4953383;28;20092;-63
2022/06/09 06:26:08;;;;;;;18.88;14.70;;;15.40;99.90;;;;;;4927327;28;20078;-62
2022/06/09 06:28:34;;;;;;;19.75;15.48;;;15.40;99.90;;;;;;4955157;28;20652;-62
2022/06/09 06:31:00;;;;;;;14.50;12.63;;;15.50;99.90;;;;;;4951274;28;20042;-62
2022/06/09 06:33:27;;;;;;;12.55;10.50;;;15.60;99.90;;;;;;4964911;28;20080;-62
2022/06/09 06:35:53;;;;;;;15.80;11.00;;;15.70;99.90;;;;;;4929470;28;20089;-63
2022/06/09 06:38:19;;;;;;;15.43;10.00;;;15.70;99.90;;;;;;4941919;28;20382;-62
2022/06/09 06:40:45;;;;;;;9.90;8.50;;;15.80;99.90;;;;;;4953001;28;20042;-62
2022/06/09 06:43:11;;;;;;;8.50;7.05;;;15.90;99.90;;;;;;4956298;28;21246;-62
2022/06/09 06:45:37;;;;;;;13.77;6.70;;;16.00;99.90;;;;;;4955305;28;21195;-62
2022/06/09 06:48:03;;;;;;;11.48;7.10;;;16.00;99.90;;;;;;4958777;28;20124;-62
2022/06/09 06:50:29;;;;;;;10.15;6.13;;;16.10;99.90;;;;;;4962884;28;20488;-61
2022/06/09 06:52:54;;;;;;;8.80;5.60;;;16.20;99.90;;;;;;4956663;28;20061;-62
2022/06/09 06:55:22;;;;;;;9.40;5.88;;;16.20;99.90;;;;;;4971727;28;20292;-62
2022/06/09 06:57:47;;;;;;;9.18;4.93;;;16.30;99.90;;;;;;4952951;28;20042;-62
2022/06/09 07:00:18;;;;;;;9.00;4.85;;;16.40;99.90;;;;;;4953957;28;20061;-62
2022/06/09 07:02:44;;;;;;;9.93;4.18;;;16.50;99.90;;;;;;4953521;28;20051;-62
2022/06/09 07:05:10;;;;;;;8.90;4.00;;;16.60;99.90;;;;;;4963903;28;20097;-62
2022/06/09 07:07:38;;;;;;;8.15;3.30;;;16.60;99.90;;;;;;4954002;28;20049;-63
2022/06/09 07:10:05;;;;;;;8.80;3.50;;;16.80;99.90;;;;;;4947029;28;20046;-62
2022/06/09 07:12:31;;;;;;;5.75;2.80;;;16.70;99.90;;;;;;4949717;28;20042;-63
2022/06/09 07:14:57;;;;;;;7.35;2.80;;;16.80;99.90;;;;;;4949159;28;20073;-63
2022/06/09 07:17:24;;;;;;;7.55;2.45;;;16.90;99.90;;;;;;4954246;28;20044;-62
2022/06/09 07:19:50;;;;;;;5.53;2.13;;;17.00;99.90;;;;;;4961074;28;20057;-62
2022/06/09 07:22:16;;;;;;;7.22;2.50;;;17.20;99.90;;;;;;4946530;28;20042;-62
2022/06/09 07:24:42;;;;;;;7.43;2.42;;;17.20;99.90;;;;;;4968017;28;20042;-62
2022/06/09 07:27:07;;;;;;;9.23;2.83;;;17.20;99.90;;;;;;4949536;28;20088;-63
2022/06/09 07:29:33;;;;;;;6.50;2.47;;;17.20;99.90;;;;;;4951047;28;20101;-63
2022/06/09 07:32:00;;;;;;;6.72;2.20;;;17.30;99.90;;;;;;4958729;28;20034;-63
2022/06/09 07:34:26;;;;;;;6.35;2.03;;;17.30;99.90;;;;;;4949848;28;20778;-62
2022/06/09 07:36:53;;;;;;;6.72;2.95;;;17.40;99.90;;;;;;4957106;28;20043;-63
2022/06/09 07:39:19;;;;;;;11.32;3.30;;;17.50;99.90;;;;;;4961239;28;20711;-62
2022/06/09 07:41:45;;;;;;;6.60;1.95;;;17.40;99.90;;;;;;4957416;28;21202;-63
2022/06/09 07:44:11;;;;;;;6.47;1.83;;;17.50;99.90;;;;;;4949110;28;20057;-62
2022/06/09 07:46:39;;;;;;;5.15;1.73;;;17.60;99.90;;;;;;4929743;28;20043;-62
2022/06/09 07:49:05;;;;;;;6.65;2.13;;;17.50;99.90;;;;;;4944340;28;20723;-63
2022/06/09 07:51:31;;;;;;;8.43;2.22;;;17.50;99.90;;;;;;4944996;28;20050;-63
2022/06/09 07:53:57;;;;;;;6.25;1.75;;;17.70;99.90;;;;;;4940829;28;20512;-62
2022/06/09 07:56:23;;;;;;;6.13;1.92;;;17.60;99.90;;;;;;4955482;28;20047;-62
2022/06/09 07:58:49;;;;;;;7.82;1.73;;;17.70;99.90;;;;;;4960231;28;20157;-62
2022/06/09 08:01:18;;;;;;;8.55;1.85;;;17.70;99.90;;;;;;4946784;28;20046;-62
2022/06/09 08:03:44;;;;;;;5.75;1.48;;;17.70;99.90;;;;;;4931361;28;20314;-62
2022/06/09 08:06:11;;;;;;;6.07;1.95;;;17.80;99.90;;;;;;4963499;28;20795;-63
2022/06/09 08:08:37;;;;;;;9.07;2.95;;;17.80;99.90;;;;;;4932142;28;20150;-64
2022/06/09 08:11:05;;;;;;;5.28;2.13;;;18.10;99.90;;;;;;4954613;28;20053;-63
2022/06/09 08:13:34;;;;;;;7.03;2.10;;;18.10;99.90;;;;;;4951395;28;20058;-63
2022/06/09 08:16:01;;;;;;;6.57;1.70;;;17.90;99.90;;;;;;4947312;28;20053;-66
2022/06/09 08:18:28;;;;;;;4.10;1.50;;;17.90;99.90;;;;;;4957182;28;20129;-62
2022/06/09 08:20:55;;;;;;;10.30;2.25;;;18.00;99.90;;;;;;4927184;28;20050;-62
2022/06/09 08:23:24;;;;;;;10.90;2.33;;;17.90;99.90;;;;;;4974402;28;20034;-63
2022/06/09 08:25:53;;;;;;;8.07;2.17;;;18.10;99.90;;;;;;4948809;28;20109;-62
2022/06/09 08:28:20;;;;;;;5.88;1.92;;;18.10;99.90;;;;;;4947571;28;20129;-62
2022/06/09 08:30:53;;;;;;;5.28;1.80;;;18.30;99.90;;;;;;4949255;28;20050;-64
2022/06/09 08:33:21;;;;;;;8.33;2.20;;;18.40;99.90;;;;;;4949161;28;20069;-63
2022/06/09 08:35:47;;;;;;;7.18;2.53;;;18.30;99.90;;;;;;4955672;28;20791;-63
2022/06/09 08:38:14;;;;;;;9.95;3.47;;;18.30;99.90;;;;;;4952362;28;20950;-62
2022/06/09 08:40:59;;;;;;;9.63;2.35;;;18.20;99.90;;;;;;4947530;28;20049;-62
2022/06/09 08:43:34;;;;;;;11.02;2.65;;;18.20;99.90;;;;;;4982170;28;20042;-65
2022/06/09 08:46:40;;;;;;;11.35;2.15;;;18.40;99.90;;;;;;4974713;28;20046;-63
2022/06/09 08:49:30;;;;;;;7.57;2.22;;;18.50;99.90;;;;;;4969962;28;20060;-63
2022/06/09 08:52:01;;;;;;;7.00;2.40;;;18.70;99.90;;;;;;4961435;28;20136;-63
2022/06/09 08:54:33;;;;;;;8.15;1.80;;;18.90;99.90;;;;;;4972988;28;20046;-62
2022/06/09 08:57:03;;;;;;;9.38;2.30;;;18.90;99.90;;;;;;4941451;28;20440;-62
2022/06/09 08:59:37;;;;;;;7.75;2.60;;;18.70;99.90;;;;;;4965049;28;20045;-61
2022/06/09 09:02:17;;;;;;;8.80;2.15;;;18.60;99.90;;;;;;4958242;28;20539;-61
2022/06/09 09:04:47;;;;;;;10.48;2.17;;;18.80;99.90;;;;;;4957424;28;20129;-61
2022/06/09 09:07:26;;;;;;;5.68;1.70;;;19.00;99.90;;;;;;4958151;28;20054;-61
2022/06/09 09:10:07;;;;;;;7.38;2.00;;;19.10;99.90;;;;;;4971169;28;20046;-60
2022/06/09 09:12:50;;;;;;;6.60;1.85;;;18.80;99.90;;;;;;4972032;28;20116;-61
2022/06/09 09:15:29;;;;;;;9.57;2.05;;;18.70;99.90;;;;;;4964167;28;20050;-61
2022/06/09 09:18:05;;;;;;;8.13;1.92;;;18.80;99.90;;;;;;4953210;28;20177;-61
2022/06/09 09:20:37;;;;;;;10.98;2.63;;;18.90;99.90;;;;;;4948799;28;20046;-61
2022/06/09 09:23:17;;;;;;;12.68;2.95;;;18.90;99.90;;;;;;4951674;28;20046;-62
2022/06/09 09:26:00;;;;;;;6.75;2.17;;;18.90;99.90;;;;;;4941120;28;20038;-61
2022/06/09 09:28:27;;;;;;;11.77;1.90;;;19.00;99.90;;;;;;4949239;28;20053;-62
2022/06/09 09:31:20;;;;;;;8.57;1.80;;;19.00;99.90;;;;;;4950503;28;20686;-61
2022/06/09 09:33:46;;;;;;;6.93;2.03;;;19.10;99.90;;;;;;4944803;28;20042;-62
2022/06/09 09:36:28;;;;;;;10.82;2.58;;;19.20;99.90;;;;;;4955368;28;20125;-65
2022/06/09 09:39:19;;;;;;;8.55;2.10;;;19.30;99.90;;;;;;4949485;28;20433;-64
2022/06/09 09:41:46;;;;;;;6.40;1.85;;;19.30;99.90;;;;;;4951152;28;20046;-63
2022/06/09 09:44:24;;;;;;;10.30;2.97;;;19.40;99.90;;;;;;4956907;28;20070;-66
2022/06/09 09:46:54;;;;;;;8.63;2.13;;;19.50;99.90;;;;;;4954827;28;20037;-62
2022/06/09 09:49:35;;;;;;;9.35;2.45;;;19.60;99.90;;;;;;4957840;28;20042;-63
2022/06/09 09:52:21;;;;;;;8.07;1.92;;;19.60;99.90;;;;;;4956565;28;20038;-67
2022/06/09 09:54:46;;;;;;;9.77;2.70;;;19.40;99.90;;;;;;4953468;28;20039;-63
2022/06/09 09:57:18;;;;;;;5.78;1.80;;;19.20;99.90;;;;;;4950745;28;20046;-61
2022/06/09 09:59:47;;;;;;;7.63;2.00;;;19.10;99.90;;;;;;4953151;28;20035;-61
2022/06/09 10:08:37;;;;;;;16.80;2.88;;;18.90;99.90;;;;;;4955098;28;20032;-62
2022/06/09 10:11:53;;;;;;;8.40;2.15;;;18.80;99.90;;;;;;4960663;28;23227;-62
2022/06/09 10:13:51;;;;;;;7.40;1.85;;;18.90;99.90;;;;;;4959906;28;20561;-63
2022/06/09 10:16:17;;;;;;;6.63;1.70;;;19.30;99.90;;;;;;4949649;28;20112;-62
2022/06/09 10:18:44;;;;;;;5.97;2.30;;;19.10;99.90;;;;;;4952172;28;20062;-63
2022/06/09 10:21:13;;;;;;;9.63;2.45;;;19.10;99.90;;;;;;4946217;28;20200;-61
2022/06/09 10:24:01;;;;;;;5.32;2.10;;;19.20;99.90;;;;;;4950436;28;20460;-67
2022/06/09 10:26:39;;;;;;;4.38;1.63;;;19.30;99.90;;;;;;4943729;28;20105;-61
2022/06/09 10:29:20;;;;;;;4.75;1.60;;;19.40;99.90;;;;;;4949399;28;20050;-62
2022/06/09 10:31:59;;;;;;;7.18;1.92;;;19.50;99.90;;;;;;4946624;28;20075;-63
2022/06/09 10:34:52;;;;;;;9.40;2.83;;;19.60;99.90;;;;;;4948129;28;23171;-62
2022/06/09 10:37:36;;;;;;;6.10;1.95;;;19.50;99.90;;;;;;4935229;28;20046;-63
2022/06/09 10:40:20;;;;;;;7.75;1.70;;;19.70;99.90;;;;;;4947138;28;20130;-61
2022/06/09 10:42:52;;;;;;;6.30;1.80;;;19.70;99.90;;;;;;4965383;28;20519;-66
2022/06/09 10:45:56;;;;;;;9.25;1.50;;;20.10;99.90;;;;;;4957248;28;20046;-63
2022/06/09 10:55:18;;;;;;;6.22;1.98;;;19.90;99.90;;;;;;4971197;28;20484;-59
2022/06/09 10:58:31;;;;;;;8.00;1.83;;;19.60;99.90;;;;;;4971210;28;20139;-61
2022/06/09 11:00:58;;;;;;;7.95;2.05;;;19.40;99.90;;;;;;4962804;28;20210;-59
2022/06/09 11:03:28;;;;;;;4.82;1.80;;;19.50;99.90;;;;;;4951234;28;20067;-60
2022/06/09 11:06:18;;;;;;;6.18;2.22;;;19.80;99.90;;;;;;4952798;29;20042;-60
2022/06/09 11:08:59;;;;;;;6.57;1.77;;;19.90;99.90;;;;;;4952174;28;20039;-60
2022/06/09 11:11:42;;;;;;;5.85;1.85;;;20.00;99.90;;;;;;4953083;28;20102;-60
2022/06/09 11:14:27;;;;;;;7.63;1.80;;;20.30;99.90;;;;;;4952602;29;20090;-59
2022/06/09 11:17:04;;;;;;;6.65;1.95;;;19.80;99.90;;;;;;4952867;28;20570;-60
2022/06/09 11:19:40;;;;;;;6.80;1.60;;;19.90;99.90;;;;;;4951278;28;20035;-60
2022/06/09 11:22:13;;;;;;;6.90;1.98;;;20.30;99.90;;;;;;4952848;28;20174;-60
2022/06/09 11:25:10;;;;;;;11.93;2.15;;;20.30;99.90;;;;;;4952845;28;20043;-60
2022/06/09 11:28:12;;;;;;;9.05;2.15;;;20.20;99.90;;;;;;4950543;29;20507;-62
2022/06/09 11:31:13;;;;;;;7.28;1.90;;;19.70;99.90;;;;;;4950905;29;20167;-61
2022/06/09 11:33:54;;;;;;;5.53;1.90;;;19.40;99.90;;;;;;4950534;29;20062;-60
2022/06/09 11:36:42;;;;;;;7.55;2.17;;;19.50;99.90;;;;;;4951100;29;20044;-61
2022/06/09 11:39:28;;;;;;;7.55;1.88;;;19.60;99.90;;;;;;4935457;29;20046;-61
2022/06/09 11:42:19;;;;;;;9.48;2.95;;;19.40;99.90;;;;;;4951442;29;20047;-61
2022/06/09 11:44:48;;;;;;;4.70;2.13;;;19.60;99.90;;;;;;4951582;29;20058;-60
2022/06/09 11:47:20;;;;;;;8.38;1.70;;;19.50;99.90;;;;;;4952545;28;20043;-61
2022/06/09 11:49:52;;;;;;;7.30;2.15;;;19.50;99.90;;;;;;4953161;28;20046;-62
2022/06/09 11:52:25;;;;;;;10.73;2.00;;;19.80;99.90;;;;;;4966951;28;20102;-61
2022/06/09 11:54:54;;;;;;;8.25;2.17;;;19.60;99.90;;;;;;4951852;29;20124;-59
2022/06/09 11:57:43;;;;;;;6.72;1.73;;;19.50;99.90;;;;;;4951833;29;20047;-60
2022/06/09 12:00:27;;;;;;;7.40;2.03;;;19.50;99.90;;;;;;4952380;28;20070;-61
2022/06/09 12:03:23;;;;;;;7.50;1.70;;;19.90;99.90;;;;;;4951678;29;20040;-60
2022/06/09 12:06:04;;;;;;;9.25;1.90;;;20.40;99.90;;;;;;4952360;29;20058;-62
2022/06/09 12:08:34;;;;;;;7.63;2.30;;;20.40;99.90;;;;;;4952354;28;20047;-61
2022/06/09 12:11:18;;;;;;;9.35;2.10;;;20.40;99.90;;;;;;4934915;29;20098;-60
2022/06/09 12:13:57;;;;;;;6.65;2.17;;;20.20;99.90;;;;;;4952010;29;20565;-63
2022/06/09 12:17:11;;;;;;;5.10;1.90;;;19.90;99.90;;;;;;4954693;28;20058;-60
2022/06/09 12:19:52;;;;;;;9.75;2.45;;;20.10;99.90;;;;;;4949620;28;20095;-60
2022/06/09 12:22:39;;;;;;;5.82;2.10;;;20.40;99.90;;;;;;4955587;28;20050;-62
2022/06/09 12:25:08;;;;;;;5.25;2.08;;;20.70;99.90;;;;;;4956023;29;20047;-62
2022/06/09 12:27:36;;;;;;;6.22;1.60;;;20.70;99.90;;;;;;4955693;29;20054;-61
2022/06/09 12:30:02;;;;;;;7.38;1.88;;;20.70;99.90;;;;;;4955813;28;20127;-60
2022/06/09 12:32:40;;;;;;;5.75;2.05;;;20.90;99.90;;;;;;4938414;29;20506;-62
2022/06/09 12:35:24;;;;;;;6.50;2.20;;;20.90;99.90;;;;;;4938249;29;20526;-63
2022/06/09 12:38:01;;;;;;;5.70;2.15;;;21.00;99.40;;;;;;4954262;28;20051;-60
2022/06/09 12:40:33;;;;;;;6.22;1.58;;;20.70;99.50;;;;;;4956282;28;20050;-60
2022/06/09 12:43:09;;;;;;;7.40;2.37;;;20.60;99.90;;;;;;4955337;29;20035;-62
2022/06/09 12:45:37;;;;;;;6.32;1.77;;;20.10;99.70;;;;;;4954800;29;20398;-60
2022/06/09 12:48:13;;;;;;;6.40;1.80;;;20.20;99.90;;;;;;4955514;28;20047;-61
2022/06/09 12:50:48;;;;;;;5.68;1.63;;;20.30;99.90;;;;;;4955661;28;20039;-61
2022/06/09 12:53:21;;;;;;;6.80;1.90;;;20.20;99.90;;;;;;4955380;29;20043;-63
2022/06/09 12:55:59;;;;;;;7.57;2.00;;;20.10;99.90;;;;;;4955544;29;20054;-58
2022/06/09 12:58:35;;;;;;;6.80;1.95;;;19.90;99.90;;;;;;4954839;28;20452;-59
2022/06/09 13:01:11;;;;;;;5.88;1.85;;;20.00;99.90;;;;;;4955463;29;20394;-62
2022/06/09 13:03:50;;;;;;;6.88;2.38;;;20.00;99.60;;;;;;4955403;28;20050;-61
2022/06/09 13:06:29;;;;;;;7.25;1.55;;;20.10;99.90;;;;;;4954246;29;20043;-60
2022/06/09 13:09:03;;;;;;;4.20;1.48;;;20.50;99.80;;;;;;4938264;29;20083;-62
2022/06/09 13:14:22;;;;;;;9.57;2.13;;;20.90;98.10;;;;;;4955149;29;20051;-60
2022/06/09 13:16:53;;;;;;;7.95;1.80;;;21.10;99.20;;;;;;4954887;28;20455;-61
2022/06/09 13:19:21;;;;;;;6.75;1.90;;;21.00;98.80;;;;;;4955036;28;20050;-61
2022/06/09 13:21:48;;;;;;;7.43;1.95;;;21.00;97.90;;;;;;4954974;28;20047;-61